TimeCST,TemperatureF,Dew PointF,Humidity,Sea Level PressureIn,VisibilityMPH,Wind Direction,Wind SpeedMPH,Gust SpeedMPH,PrecipitationIn,Events,Conditions,WindDirDegrees,DateUTC
12:56 AM,37.0,30.0,76,30.33,10.0,North,6.9,-,N/A,,Clear,350,2013-01-04 06:56:00
1:56 AM,37.0,30.9,79,30.33,10.0,NNE,5.8,-,N/A,,Clear,20,2013-01-04 07:56:00
2:56 AM,37.0,30.9,79,30.34,10.0,North,5.8,-,N/A,,Clear,350,2013-01-04 08:56:00
3:56 AM,36.0,30.0,79,30.33,10.0,North,5.8,-,N/A,,Clear,350,2013-01-04 09:56:00
4:56 AM,36.0,30.0,79,30.33,10.0,North,6.9,-,N/A,,Clear,360,2013-01-04 10:56:00
5:56 AM,35.1,30.0,82,30.36,10.0,NNW,3.5,-,N/A,,Mostly Cloudy,340,2013-01-04 11:56:00
6:56 AM,34.0,30.0,85,30.38,10.0,North,5.8,-,N/A,,Mostly Cloudy,360,2013-01-04 12:56:00
7:56 AM,39.9,30.9,70,30.38,10.0,NNE,9.2,-,N/A,,Mostly Cloudy,30,2013-01-04 13:56:00
8:56 AM,45.0,30.0,56,30.40,10.0,NNE,11.5,-,N/A,,Mostly Cloudy,30,2013-01-04 14:56:00
9:56 AM,46.0,30.0,54,30.42,10.0,North,9.2,-,N/A,,Mostly Cloudy,10,2013-01-04 15:56:00
10:56 AM,48.9,30.0,48,30.40,10.0,North,9.2,-,N/A,,Mostly Cloudy,10,2013-01-04 16:56:00
11:56 AM,52.0,28.9,41,30.38,10.0,NNE,8.1,-,N/A,,Mostly Cloudy,20,2013-01-04 17:56:00
12:56 PM,55.0,28.0,35,30.34,10.0,North,12.7,-,N/A,,Mostly Cloudy,10,2013-01-04 18:56:00
1:56 PM,57.0,30.9,37,30.32,10.0,NNE,6.9,-,N/A,,Mostly Cloudy,20,2013-01-04 19:56:00
2:56 PM,55.9,30.0,37,30.32,10.0,NNE,9.2,-,N/A,,Mostly Cloudy,30,2013-01-04 20:56:00
3:56 PM,55.0,30.9,40,30.33,10.0,NNE,8.1,-,N/A,,Mostly Cloudy,30,2013-01-04 21:56:00
4:56 PM,51.1,34.0,52,30.34,10.0,North,3.5,-,N/A,,Mostly Cloudy,360,2013-01-04 22:56:00
5:56 PM,46.9,36.0,66,30.36,10.0,Calm,Calm,-,N/A,,Mostly Cloudy,0,2013-01-04 23:56:00
6:56 PM,43.0,37.9,82,30.39,10.0,NW,3.5,-,N/A,,Mostly Cloudy,320,2013-01-05 00:56:00
7:56 PM,42.1,39.0,89,30.38,10.0,North,3.5,-,N/A,,Mostly Cloudy,350,2013-01-05 01:56:00
8:56 PM,44.1,37.0,76,30.38,10.0,NNW,3.5,-,N/A,,Mostly Cloudy,340,2013-01-05 02:56:00
9:56 PM,43.0,37.0,80,30.38,10.0,NNW,3.5,-,N/A,,Clear,340,2013-01-05 03:56:00
10:56 PM,45.0,35.1,68,30.36,10.0,North,3.5,-,N/A,,Clear,10,2013-01-05 04:56:00
11:56 PM,45.0,33.1,63,30.35,10.0,North,4.6,-,N/A,,Clear,360,2013-01-05 05:56:00